Colina del Mar, Puerto Rico
Current Conditions -  °F | °C
As of 12:56 PM on Monday 20 Oct 2014 (Local Time) from TJSJ Reporting Station
Scattered Clouds Scattered Clouds  
Wind Chill: 88°   Ceiling: Unl
Heat Index: 99°   Visibility: 10mi
Dew Point: 76°   Wind: 9mph
Humidity: 67%   Direction: 40°NE
Pressure: 29.95"   Gusts: NA
Location:  18.4259°N, 66.4717°W
Report Text: TJSJ 201656Z 04008KT 10SM FEW025 SCT065 31/24 A2995 RMK AO2 SLP140 T03110244
Loading
Personal Weather Stations






























Interactive Weather Map
Tropical Storm Tracking
New forecast layout! Learn more

10-Day Weather Forecast

Advertisements
Track Severe Weather on mobile